メインページ
METAR-TAF:

METAR-TAF

空港 :

Dansville Municipal Airport

Dansville, ニューヨーク, アメリカ合衆国

緯度: 42-34-10N, 経度: 077-42-52W, 海抜: 201m

現時点の気象観測

当レポートは13分前の05:34(UTC)に作成
無風
気温 6°C
湿度 93%
気圧 1016 hPa
視程: 3.2km
高度300ftの曇り

METAR: KDSV 040534Z AUTO 00000KT 2SM BR OVC003 06/05 A3000 RMK AO2 T00560050

時間: 01:47 (05:47 UTC)


TAF: 見つかりません

4,000以上の空港の気象観測と天気予報(METAR報とTAF報)

利用可能な観測所は地図上に黄色い丸と赤い丸で示す。

丸の上にカーソルを重ねると観測所名を参照できる。

次にクリックすると気象観測と天気予報を参照できる。

マップの切り替え:黒色「×」印の緑ボタンをクリックして拡大、「-」印の緑ボタンをクリックして縮小、緑色の三角印をクリックして隣りの地図に切り替え


METAR-TAF: